Time;durP1;ratioP1;P1;durP2;ratioP2;P2;SDS_P1;SDS_P2;PMS_P1;PMS_P2;Temp;Humidity;BMP_temperature;BMP_pressure;BME280_temperature;BME280_humidity;BME280_pressure;Samples;Min_cycle;Max_cycle;Signal;HPM_P1;HPM_P2
2022/07/26 00:01:04;;;;;;;5.47;2.78;;;;;;;24.89;32.20;99272.62;7632299;32;37188;-81
2022/07/26 00:05:20;;;;;;;5.78;2.55;;;;;;;24.79;32.13;99256.56;7632233;32;39403;-80
2022/07/26 00:09:36;;;;;;;7.12;3.20;;;;;;;24.93;31.30;99251.94;7630200;32;40735;-81
2022/07/26 00:13:52;;;;;;;6.75;2.83;;;;;;;24.90;31.06;99257.47;7632025;32;38611;-81
2022/07/26 00:18:09;;;;;;;9.75;3.03;;;;;;;24.91;31.21;99259.09;7632136;32;37550;-80
2022/07/26 00:22:32;;;;;;;9.05;2.92;;;;;;;24.76;31.70;99251.75;7631889;32;39271;-78
2022/07/26 00:26:49;;;;;;;11.82;3.58;;;;;;;24.68;31.70;99250.84;7632138;32;40003;-77
2022/07/26 00:31:05;;;;;;;4.55;2.60;;;;;;;24.73;31.34;99244.94;7629801;32;38757;-78
2022/07/26 00:35:21;;;;;;;5.43;2.60;;;;;;;24.90;31.00;99235.97;7605914;32;37393;-80
2022/07/26 00:39:37;;;;;;;5.25;3.00;;;;;;;24.84;31.60;99245.87;7605838;32;40091;-79
2022/07/26 00:43:58;;;;;;;5.18;3.10;;;;;;;24.87;31.12;99239.53;7605785;32;39762;-79
2022/07/26 00:48:15;;;;;;;5.85;2.80;;;;;;;24.84;31.26;99231.13;7592384;32;37743;-79
2022/07/26 00:52:31;;;;;;;7.37;2.95;;;;;;;24.79;31.67;99234.28;7605282;32;36870;-78
2022/07/26 00:56:47;;;;;;;5.47;3.17;;;;;;;24.77;32.03;99231.03;7612038;32;39551;-79
2022/07/26 01:01:10;;;;;;;9.52;3.20;;;;;;;24.78;32.24;99224.28;7631682;32;40588;-78
2022/07/26 01:05:26;;;;;;;6.05;2.85;;;;;;;24.46;33.69;99203.22;7631492;32;38724;-78
2022/07/26 01:09:43;;;;;;;6.15;3.45;;;;;;;24.60;33.92;99199.03;7631501;32;37122;-78
2022/07/26 01:13:59;;;;;;;8.27;3.30;;;;;;;24.68;34.04;99204.28;7631398;32;39348;-78
2022/07/26 01:18:15;;;;;;;5.87;3.28;;;;;;;24.63;35.73;99195.44;7631360;32;39954;-79
2022/07/26 01:22:31;;;;;;;5.28;3.12;;;;;;;24.72;36.40;99195.97;7631060;32;38422;-78
2022/07/26 01:26:48;;;;;;;4.60;2.97;;;;;;;24.52;37.17;99189.72;7629903;32;37042;-78
2022/07/26 01:31:05;;;;;;;6.57;3.20;;;;;;;24.15;39.06;99184.94;7631180;32;39300;-78
2022/07/26 01:35:21;;;;;;;5.53;3.20;;;;;;;24.27;39.13;99183.88;7631084;32;40914;-78
2022/07/26 01:39:37;;;;;;;6.25;3.60;;;;;;;24.29;39.35;99179.53;7630913;32;37549;-78
2022/07/26 01:43:53;;;;;;;9.05;3.78;;;;;;;24.00;40.92;99181.94;7630980;32;37783;-78
2022/07/26 01:48:11;;;;;;;6.53;3.20;;;;;;;23.92;40.63;99180.25;7630747;32;40022;-78
2022/07/26 01:52:27;;;;;;;6.47;3.20;;;;;;;23.24;43.03;99174.41;7628928;32;39785;-78
2022/07/26 01:56:43;;;;;;;5.20;3.17;;;;;;;23.65;42.10;99182.22;7630494;32;37827;-78
2022/07/26 02:00:59;;;;;;;9.90;3.78;;;;;;;23.76;43.90;99182.38;7629231;32;37207;-78
2022/07/26 02:05:15;;;;;;;7.62;3.40;;;;;;;23.66;44.83;99177.44;7631066;32;39314;-78
2022/07/26 02:09:31;;;;;;;8.77;3.53;;;;;;;23.69;44.53;99177.50;7620072;32;39643;-78
2022/07/26 02:13:54;;;;;;;6.18;4.00;;;;;;;23.60;44.98;99179.75;7633492;32;37807;-78
2022/07/26 02:18:10;;;;;;;8.65;3.47;;;;;;;23.80;44.52;99188.78;7633491;32;37013;-78
2022/07/26 02:22:26;;;;;;;7.87;4.00;;;;;;;23.64;44.44;99191.72;7611374;32;39317;-78
2022/07/26 02:26:42;;;;;;;5.85;2.90;;;;;;;23.67;44.35;99191.00;7607331;32;39919;-79
2022/07/26 02:30:59;;;;;;;6.22;3.08;;;;;;;23.62;44.13;99194.88;7607157;32;38613;-78
2022/07/26 02:35:15;;;;;;;7.60;3.65;;;;;;;23.62;43.20;99192.09;7607425;32;37248;-78
2022/07/26 02:39:31;;;;;;;7.25;3.15;;;;;;;23.60;42.11;99188.91;7607151;32;39363;-78
2022/07/26 02:43:47;;;;;;;5.18;3.30;;;;;;;23.59;41.22;99187.31;7607139;32;39957;-76
2022/07/26 02:48:05;;;;;;;7.07;3.22;;;;;;;23.63;36.72;99181.78;7619620;32;38726;-78
2022/07/26 02:52:21;;;;;;;10.38;3.62;;;;;;;23.66;34.99;99191.34;7632990;32;36974;-78
2022/07/26 02:56:38;;;;;;;6.47;3.55;;;;;;;23.73;35.28;99191.47;7633231;32;40008;-78
2022/07/26 03:00:54;;;;;;;7.55;3.37;;;;;;;23.85;37.06;99182.91;7632692;32;40832;-78
2022/07/26 03:05:10;;;;;;;8.38;3.20;;;;;;;23.55;38.19;99192.00;7632858;32;37890;-79
2022/07/26 03:09:26;;;;;;;6.37;3.03;;;;;;;23.61;39.58;99196.06;7632949;32;37242;-79
2022/07/26 03:13:42;;;;;;;5.60;3.30;;;;;;;23.68;39.05;99194.56;7632575;32;40019;-78
2022/07/26 03:17:58;;;;;;;6.62;3.42;;;;;;;23.71;40.09;99199.38;7621424;32;39893;-78
2022/07/26 03:22:14;;;;;;;9.45;3.55;;;;;;;23.88;40.45;99201.66;7606394;32;37965;-78
2022/07/26 03:26:30;;;;;;;8.80;3.37;;;;;;;23.80;40.77;99199.91;7606820;32;38143;-78
2022/07/26 03:30:46;;;;;;;6.57;3.47;;;;;;;23.77;40.93;99197.91;7606665;32;40044;-78
2022/07/26 03:35:03;;;;;;;7.80;3.35;;;;;;;23.74;41.12;99195.84;7606598;32;39971;-78
2022/07/26 03:39:19;;;;;;;8.20;3.12;;;;;;;23.97;40.30;99195.81;7606622;32;37809;-79
2022/07/26 03:43:35;;;;;;;8.93;3.22;;;;;;;24.09;39.58;99183.63;7622422;32;36701;-77
2022/07/26 03:47:52;;;;;;;5.30;3.10;;;;;;;24.06;39.22;99187.19;7632715;32;38999;-78
2022/07/26 03:52:09;;;;;;;15.95;3.53;;;;;;;24.15;38.20;99171.78;7632555;32;40002;-78
2022/07/26 03:56:30;;;;;;;9.18;3.28;;;;;;;24.21;37.88;99177.03;7632497;32;38505;-78
2022/07/26 04:00:46;;;;;;;9.32;3.60;;;;;;;24.33;37.21;99162.84;7632256;32;37040;-78
2022/07/26 04:05:03;;;;;;;6.82;3.20;;;;;;;24.47;37.03;99165.78;7632474;32;39307;-78
2022/07/26 04:09:19;;;;;;;11.82;3.72;;;;;;;24.48;37.43;99166.62;7632349;32;40825;-78
2022/07/26 04:13:35;;;;;;;7.90;3.25;;;;;;;24.27;37.48;99159.62;7617204;32;38822;-78
2022/07/26 04:17:51;;;;;;;5.65;3.40;;;;;;;24.30;38.38;99172.78;7606219;32;37616;-79
2022/07/26 04:22:07;;;;;;;4.65;3.10;;;;;;;24.08;39.39;99176.50;7605970;32;39176;-79
2022/07/26 04:26:24;;;;;;;10.05;3.47;;;;;;;24.23;40.14;99189.38;7606130;32;40621;-79
2022/07/26 04:30:40;;;;;;;6.55;3.22;;;;;;;24.36;41.92;99207.47;7605529;32;38770;-76
2022/07/26 04:34:56;;;;;;;8.73;3.30;;;;;;;24.25;39.97;99267.81;7628530;32;38083;-76
2022/07/26 04:39:12;;;;;;;9.05;3.30;;;;;;;24.18;41.01;99217.56;7631979;32;40426;-77
2022/07/26 04:43:28;;;;;;;7.07;3.30;;;;;;;23.85;42.43;99246.94;7610788;32;40827;-77
2022/07/26 04:47:48;;;;;;;6.28;3.20;;;;;;;24.40;41.09;99220.62;7605724;32;38023;-78
2022/07/26 04:52:04;;;;;;;7.30;3.42;;;;;;;24.19;39.99;99230.31;7605806;32;37346;-81
2022/07/26 04:56:20;;;;;;;12.63;3.67;;;;;;;24.38;39.00;99215.44;7614256;32;40001;-80
2022/07/26 05:00:37;;;;;;;10.20;3.40;;;;;;;24.78;37.33;99221.50;7618297;32;39885;-81
2022/07/26 05:05:12;;;;;;;7.72;3.17;;;;;;;24.80;36.87;99224.72;7631082;32;39248;-81
2022/07/26 05:09:29;;;;;;;9.48;3.12;;;;;;;25.13;37.23;99237.81;7612565;32;37872;-81
2022/07/26 05:13:45;;;;;;;14.07;3.67;;;;;;;25.14;35.83;99246.97;7605460;32;40532;-78
2022/07/26 05:18:03;;;;;;;6.65;2.95;;;;;;;25.38;34.95;99243.62;7605495;32;40028;-79
2022/07/26 05:22:22;;;;;;;12.37;3.50;;;;;;;25.39;35.11;99244.41;7620354;32;38817;-79
2022/07/26 05:26:38;;;;;;;6.97;3.22;;;;;;;25.78;34.82;99255.91;7621498;32;37289;-78
2022/07/26 05:30:55;;;;;;;7.70;3.00;;;;;;;25.71;35.33;99246.69;7591828;32;39282;-79
2022/07/26 05:35:11;;;;;;;10.80;3.50;;;;;;;25.80;35.15;99253.53;7620096;32;40911;-79
2022/07/26 05:39:27;;;;;;;10.10;3.53;;;;;;;25.12;38.68;99252.94;7629027;32;37837;-79
2022/07/26 05:43:43;;;;;;;9.38;3.37;;;;;;;25.77;38.07;99259.09;7630926;32;37940;-79
2022/07/26 05:47:59;;;;;;;8.43;3.50;;;;;;;25.78;37.94;99266.28;7630872;32;39429;-80
2022/07/26 05:52:15;;;;;;;11.07;3.80;;;;;;;25.96;37.20;99270.03;7630432;32;39984;-79
2022/07/26 05:56:31;;;;;;;5.07;3.40;;;;;;;25.92;37.03;99254.41;7630571;32;38042;-78
2022/07/26 06:00:47;;;;;;;15.25;4.40;;;;;;;25.73;37.57;99253.47;7627992;32;37146;-78
2022/07/26 06:05:03;;;;;;;6.40;4.25;;;;;;;25.88;38.39;99253.59;7626105;32;40018;-79
2022/07/26 06:09:19;;;;;;;10.98;4.43;;;;;;;26.07;38.38;99260.94;7613422;32;39696;-78
2022/07/26 06:13:35;;;;;;;10.95;4.68;;;;;;;26.11;38.89;99264.53;7626940;32;37853;-78
2022/07/26 06:17:52;;;;;;;11.77;4.90;;;;;;;26.27;38.09;99264.22;7630038;32;37287;-78
2022/07/26 06:22:08;;;;;;;8.20;4.80;;;;;;;26.24;38.32;99263.81;7629741;32;39415;-78
2022/07/26 06:26:24;;;;;;;7.68;4.30;;;;;;;26.40;38.18;99271.06;7629689;32;40041;-78
2022/07/26 06:30:42;;;;;;;8.85;4.45;;;;;;;26.67;37.51;99260.44;7629604;32;37964;-78
2022/07/26 06:34:58;;;;;;;16.23;5.47;;;;;;;27.14;36.65;99252.19;7620963;32;37041;-78
2022/07/26 06:39:14;;;;;;;10.18;4.25;;;;;;;26.89;37.16;99235.34;7614162;32;40139;-79
2022/07/26 06:43:30;;;;;;;10.57;4.62;;;;;;;27.25;36.65;99239.03;7604370;32;40880;-79
2022/07/26 06:47:46;;;;;;;9.52;4.03;;;;;;;27.20;37.23;99247.81;7625751;32;38071;-73
2022/07/26 06:52:02;;;;;;;7.62;4.53;;;;;;;27.52;36.67;99236.63;7607336;32;38030;-73
2022/07/26 06:56:19;;;;;;;13.00;5.05;;;;;;;28.19;35.65;99233.38;7606466;32;40170;-74
2022/07/26 07:00:36;;;;;;;8.35;4.25;;;;;;;28.47;35.15;99218.44;7606467;32;40890;-74
2022/07/26 07:04:52;;;;;;;11.55;4.60;;;;;;;28.37;35.30;99219.28;7606173;32;37860;-74
2022/07/26 07:09:08;;;;;;;15.20;5.07;;;;;;;28.56;35.14;99215.22;7607281;32;37304;-74
2022/07/26 07:13:26;;;;;;;10.95;4.25;;;;;;;28.41;35.52;99212.47;7606580;32;38740;-76
2022/07/26 07:17:42;;;;;;;10.45;4.20;;;;;;;28.29;35.72;99215.72;7606285;32;40720;-76
2022/07/26 07:21:58;;;;;;;7.60;4.28;;;;;;;28.31;36.21;99218.91;7615159;32;38129;-74
2022/07/26 07:26:14;;;;;;;12.70;4.78;;;;;;;28.37;36.57;99222.91;7606452;32;37080;-74
2022/07/26 07:30:30;;;;;;;7.75;4.65;;;;;;;27.99;37.39;99239.41;7606449;32;39650;-75
2022/07/26 07:34:47;;;;;;;9.07;4.57;;;;;;;28.16;37.73;99243.38;7606179;32;40032;-75
2022/07/26 07:39:03;;;;;;;17.30;4.80;;;;;;;28.60;37.84;99252.47;7606285;32;37869;-74
2022/07/26 07:43:23;;;;;;;10.07;4.72;;;;;;;28.82;37.78;99251.16;7606292;32;37417;-75
2022/07/26 07:47:41;;;;;;;8.82;4.60;;;;;;;29.35;37.43;99240.03;7606309;32;39833;-74
2022/07/26 07:51:57;;;;;;;10.18;4.50;;;;;;;29.61;36.80;99268.69;7606196;32;39613;-74
2022/07/26 07:56:14;;;;;;;9.90;4.70;;;;;;;29.80;37.03;99253.31;7605981;32;38645;-73
2022/07/26 08:00:30;;;;;;;7.18;4.50;;;;;;;29.33;37.52;99253.69;7605996;32;37050;-73
2022/07/26 08:04:47;;;;;;;10.68;4.28;;;;;;;28.24;39.78;99263.78;7605190;32;39357;-75
2022/07/26 08:09:04;;;;;;;12.93;5.03;;;;;;;28.27;40.62;99285.41;7606186;32;39992;-74
2022/07/26 08:13:21;;;;;;;10.70;4.20;;;;;;;28.54;40.38;99299.72;7611758;32;37857;-76
2022/07/26 08:17:37;;;;;;;8.68;4.72;;;;;;;28.32;41.15;99299.00;7631729;32;38060;-75
2022/07/26 08:21:56;;;;;;;7.87;4.35;;;;;;;28.14;42.18;99301.81;7631416;32;39280;-75
2022/07/26 08:26:12;;;;;;;11.00;4.25;;;;;;;28.37;41.96;99298.59;7631550;32;39872;-76
2022/07/26 08:30:28;;;;;;;8.43;4.47;;;;;;;28.47;41.68;99286.50;7631627;32;38631;-75
2022/07/26 08:34:44;;;;;;;8.10;4.20;;;;;;;28.27;41.98;99289.00;7631812;32;37056;-76
2022/07/26 08:39:01;;;;;;;9.35;4.72;;;;;;;28.52;41.63;99284.53;7631689;32;39312;-76
2022/07/26 08:43:17;;;;;;;8.13;4.00;;;;;;;28.48;41.66;99267.72;7631637;32;40077;-76
2022/07/26 08:47:33;;;;;;;9.60;4.60;;;;;;;28.09;42.19;99241.38;7630015;32;37982;-76
2022/07/26 08:51:57;;;;;;;15.77;4.45;;;;;;;28.01;42.33;99234.22;7610580;32;37033;-76
2022/07/26 08:56:13;;;;;;;14.65;4.35;;;;;;;28.30;41.17;99250.94;7592438;32;39085;-82
2022/07/26 09:00:30;;;;;;;9.25;4.43;;;;;;;28.50;42.34;99250.50;7607937;32;40737;-81
2022/07/26 09:04:46;;;;;;;9.00;4.78;;;;;;;28.77;42.59;99251.59;7605128;32;37899;-80
2022/07/26 09:09:11;;;;;;;9.57;4.70;;;;;;;29.16;40.86;99255.41;7614581;32;37655;-73
2022/07/26 09:13:53;;;;;;;6.90;4.22;;;;;;;29.07;40.02;99260.66;7630456;32;38980;-80
2022/07/26 09:18:26;;;;;;;9.82;4.97;;;;;;;29.18;39.09;99270.63;7615435;32;39915;-81
2022/07/26 09:22:55;;;;;;;8.32;3.95;;;;;;;28.90;40.23;99273.56;7603713;32;38649;-81
2022/07/26 09:27:14;;;;;;;16.92;4.93;;;;;;;28.86;40.20;99290.41;7612733;32;37008;-81
2022/07/26 09:31:31;;;;;;;8.23;4.32;;;;;;;28.66;40.49;99298.50;7619531;32;39272;-80
2022/07/26 09:36:06;;;;;;;6.97;4.47;;;;;;;28.27;41.73;99325.44;7604715;32;40784;-81
2022/07/26 09:40:29;;;;;;;16.27;4.62;;;;;;;28.15;41.51;99351.06;7604860;32;38036;-80
2022/07/26 09:44:46;;;;;;;9.02;4.10;;;;;;;27.93;42.08;99350.28;7611150;32;37899;-81
2022/07/26 09:49:17;;;;;;;8.27;4.85;;;;;;;27.36;43.66;99384.56;7630404;32;39157;-80
2022/07/26 09:53:54;;;;;;;8.00;4.95;;;;;;;26.09;51.03;99392.59;7617275;32;41186;-77
2022/07/26 09:58:14;;;;;;;10.95;5.50;;;;;;;25.43;53.34;99423.84;7617770;32;38170;-74
2022/07/26 10:02:31;;;;;;;10.18;5.10;;;;;;;24.92;55.96;99437.13;7621563;32;38213;-74
2022/07/26 10:06:47;;;;;;;12.73;5.57;;;;;;;24.60;56.88;99445.03;7604159;32;39426;-74
2022/07/26 10:11:06;;;;;;;11.48;6.45;;;;;;;24.35;60.59;99461.31;7604008;32;40927;-74
2022/07/26 10:15:46;;;;;;;13.60;6.53;;;;;;;24.42;62.77;99460.63;7601607;32;37906;-76
2022/07/26 10:20:06;;;;;;;12.02;6.43;;;;;;;24.77;61.94;99459.59;7629705;32;37098;-75
2022/07/26 10:24:33;;;;;;;10.75;6.53;;;;;;;24.79;62.69;99451.69;7617811;32;39297;-74
2022/07/26 10:28:49;;;;;;;13.73;7.50;;;;;;;24.51;63.67;99438.91;7602789;32;39746;-74
2022/07/26 10:33:13;;;;;;;14.45;6.97;;;;;;;25.19;63.69;99413.97;7591297;32;37692;-76
2022/07/26 10:37:29;;;;;;;13.45;7.30;;;;;;;25.44;63.13;99408.69;7616595;32;37336;-75
2022/07/26 10:41:56;;;;;;;10.50;5.80;;;;;;;25.58;61.63;99410.88;7631507;32;39088;-74
2022/07/26 10:46:18;;;;;;;14.63;7.10;;;;;;;25.34;61.88;99418.56;7616471;32;40803;-74
2022/07/26 10:50:35;;;;;;;12.30;7.03;;;;;;;25.46;61.31;99415.50;7629142;32;37898;-74
2022/07/26 10:55:00;;;;;;;12.07;6.93;;;;;;;25.24;62.68;99419.22;7617164;32;37049;-74
2022/07/26 10:59:29;;;;;;;11.73;7.28;;;;;;;24.80;63.81;99419.81;7606726;32;39671;-74
2022/07/26 11:04:16;;;;;;;12.27;8.35;;;;;;;24.78;64.52;99433.34;7596875;32;40182;-74
2022/07/26 11:08:32;;;;;;;14.50;7.03;;;;;;;24.54;65.09;99452.09;7606620;32;38021;-74
2022/07/26 11:12:56;;;;;;;12.88;7.87;;;;;;;24.57;65.67;99451.34;7606504;32;37176;-74
2022/07/26 11:17:31;;;;;;;12.50;7.82;;;;;;;24.61;66.11;99452.22;7606590;32;40159;-75
2022/07/26 11:22:00;;;;;;;13.40;7.97;;;;;;;24.28;66.43;99447.28;7606722;32;39961;-75
2022/07/26 11:26:22;;;;;;;16.45;9.02;;;;;;;24.20;66.58;99446.38;7606382;32;38116;-79
2022/07/26 11:30:54;;;;;;;14.55;8.88;;;;;;;23.89;68.00;99442.66;7612267;32;37763;-79
2022/07/26 11:35:11;;;;;;;13.75;9.13;;;;;;;23.92;68.66;99446.66;7605574;32;40403;-78
2022/07/26 11:39:30;;;;;;;15.60;9.07;;;;;;;23.85;68.97;99435.41;7613970;32;39943;-77
2022/07/26 11:43:46;;;;;;;14.20;8.93;;;;;;;23.31;69.95;99448.25;7618013;32;37873;-78
2022/07/26 11:48:04;;;;;;;14.82;8.70;;;;;;;23.36;70.34;99436.84;7632018;32;37251;-77
2022/07/26 11:52:20;;;;;;;13.40;8.40;;;;;;;23.80;68.89;99433.69;7632150;32;39341;-77
2022/07/26 11:56:48;;;;;;;13.60;8.43;;;;;;;23.95;68.06;99427.22;7632025;32;40919;-77
2022/07/26 12:01:04;;;;;;;13.15;8.52;;;;;;;24.06;68.38;99421.03;7619561;32;38032;-77
2022/07/26 12:05:22;;;;;;;13.10;9.02;;;;;;;24.29;67.24;99412.69;7632126;32;38056;-78
2022/07/26 12:09:50;;;;;;;14.50;9.43;;;;;;;24.31;67.56;99408.34;7632025;32;39500;-79
2022/07/26 12:14:06;;;;;;;16.35;9.88;;;;;;;24.15;68.79;99408.47;7631788;32;39913;-77
2022/07/26 12:18:28;;;;;;;14.43;9.80;;;;;;;24.10;68.65;99405.22;7632031;32;38259;-78
2022/07/26 12:23:03;;;;;;;14.95;10.20;;;;;;;23.73;69.15;99397.38;7631763;32;37990;-78
2022/07/26 12:27:24;;;;;;;15.02;9.63;;;;;;;23.93;69.03;99400.94;7631901;32;39060;-78
2022/07/26 12:31:40;;;;;;;15.25;10.18;;;;;;;23.99;68.88;99397.50;7631799;32;39876;-78
2022/07/26 12:36:00;;;;;;;15.75;9.55;;;;;;;24.02;69.26;99386.78;7631478;32;38189;-78
2022/07/26 12:40:17;;;;;;;14.68;10.23;;;;;;;24.26;68.02;99386.38;7618586;32;37184;-80
2022/07/26 12:44:33;;;;;;;14.05;10.40;;;;;;;24.12;68.14;99380.59;7631529;32;40035;-79
2022/07/26 12:48:49;;;;;;;17.27;10.73;;;;;;;24.06;69.20;99395.97;7630911;32;40545;-79
2022/07/26 12:53:09;;;;;;;17.48;11.12;;;;;;;23.67;69.97;99393.31;7631350;32;38842;-78
2022/07/26 12:57:28;;;;;;;17.62;10.98;;;;;;;24.05;69.26;99386.03;7631536;32;37164;-79
2022/07/26 13:01:44;;;;;;;16.42;10.63;;;;;;;24.21;68.28;99395.03;7631839;32;40098;-78
2022/07/26 13:06:02;;;;;;;19.65;10.93;;;;;;;24.23;67.50;99381.53;7631638;32;40919;-79
2022/07/26 13:10:18;;;;;;;17.90;10.48;;;;;;;24.14;68.20;99378.22;7632089;32;38117;-79
2022/07/26 13:14:49;;;;;;;15.35;10.20;;;;;;;24.64;68.15;99383.78;7631766;32;36904;-79
2022/07/26 13:19:06;;;;;;;16.30;10.55;;;;;;;24.55;68.89;99395.19;7631674;32;39321;-78
2022/07/26 13:23:22;;;;;;;16.95;10.43;;;;;;;24.61;66.10;99399.28;7631424;32;40768;-78
2022/07/26 13:27:41;;;;;;;16.42;10.55;;;;;;;24.99;64.13;99383.47;7631428;32;37750;-78
2022/07/26 13:32:01;;;;;;;16.58;11.25;;;;;;;25.38;62.89;99379.53;7630258;32;39096;-78
2022/07/26 13:36:17;;;;;;;17.08;11.00;;;;;;;25.60;61.97;99380.56;7631102;32;39277;-79
2022/07/26 13:40:33;;;;;;;15.57;11.00;;;;;;;25.51;61.44;99380.88;7631337;32;39953;-78
2022/07/26 13:44:49;;;;;;;16.73;9.70;;;;;;;25.39;62.30;99373.59;7631172;32;38669;-79
2022/07/26 13:49:05;;;;;;;14.87;10.30;;;;;;;26.23;62.81;99376.78;7631362;32;37803;-79
2022/07/26 13:53:22;;;;;;;16.12;10.20;;;;;;;26.03;61.13;99375.41;7631044;32;40028;-79
2022/07/26 13:57:38;;;;;;;14.93;11.12;;;;;;;26.29;59.26;99368.03;7631133;32;40793;-79
2022/07/26 14:02:12;;;;;;;15.00;10.30;;;;;;;25.95;60.47;99382.13;7632100;32;37931;-79
2022/07/26 14:06:28;;;;;;;14.00;10.38;;;;;;;26.44;58.51;99375.31;7634071;32;37931;-79
2022/07/26 14:10:45;;;;;;;17.35;10.23;;;;;;;26.37;57.99;99369.66;7633884;32;40077;-79
2022/07/26 14:15:01;;;;;;;16.80;11.00;;;;;;;26.08;58.57;99375.06;7633994;32;40671;-78
2022/07/26 14:19:22;;;;;;;16.75;11.25;;;;;;;25.76;58.92;99372.75;7633786;32;38033;-79
2022/07/26 14:23:38;;;;;;;15.57;10.32;;;;;;;26.07;58.44;99370.66;7633615;32;38121;-78
2022/07/26 14:27:55;;;;;;;15.23;10.00;;;;;;;25.90;58.17;99372.06;7633736;32;39289;-78
2022/07/26 14:32:13;;;;;;;14.95;9.75;;;;;;;25.97;57.69;99357.41;7633590;32;40092;-79
2022/07/26 14:36:36;;;;;;;14.10;9.43;;;;;;;26.21;57.51;99370.75;7633586;32;38057;-79
2022/07/26 14:40:52;;;;;;;14.32;9.27;;;;;;;26.19;57.14;99370.34;7633620;32;37806;-79
2022/07/26 14:45:09;;;;;;;14.48;9.40;;;;;;;26.10;57.65;99366.28;7633506;32;40048;-79
2022/07/26 14:49:25;;;;;;;13.07;9.52;;;;;;;26.26;57.71;99368.78;7633526;32;40644;-79
2022/07/26 14:53:43;;;;;;;13.75;9.52;;;;;;;26.26;57.21;99363.22;7633294;32;38001;-79
2022/07/26 14:57:58;;;;;;;12.70;9.50;;;;;;;25.86;58.02;99358.06;7633531;32;37332;-79
2022/07/26 15:02:15;;;;;;;14.65;9.60;;;;;;;26.34;56.52;99365.66;7633449;32;39292;-78
2022/07/26 15:06:31;;;;;;;12.77;8.95;;;;;;;26.56;52.76;99365.78;7620254;32;40118;-79
2022/07/26 15:10:49;;;;;;;12.63;8.80;;;;;;;26.35;50.65;99358.06;7633222;32;37807;-79
2022/07/26 15:15:07;;;;;;;14.20;9.55;;;;;;;26.39;49.81;99356.13;7632889;32;36149;-80
2022/07/26 15:19:23;;;;;;;14.57;9.52;;;;;;;26.75;50.53;99356.31;7633175;32;39422;-78
2022/07/26 15:23:40;;;;;;;16.25;9.73;;;;;;;26.96;50.14;99342.44;7632943;32;40822;-79
2022/07/26 15:27:56;;;;;;;14.70;9.45;;;;;;;26.68;51.00;99345.94;7619496;32;37547;-80
2022/07/26 15:32:12;;;;;;;18.10;9.45;;;;;;;26.98;50.09;99354.03;7632969;32;37848;-79
2022/07/26 15:36:29;;;;;;;13.27;10.05;;;;;;;26.91;49.94;99342.81;7632947;32;40016;-79
2022/07/26 15:40:46;;;;;;;14.20;10.20;;;;;;;26.68;50.89;99351.53;7632850;32;40679;-79
2022/07/26 15:45:03;;;;;;;15.07;10.52;;;;;;;27.22;49.82;99343.34;7632869;32;38239;-79
2022/07/26 15:49:24;;;;;;;22.63;11.67;;;;;;;27.18;49.45;99339.72;7632903;32;38036;-79
2022/07/26 15:53:41;;;;;;;15.57;11.60;;;;;;;27.20;49.61;99331.75;7632634;32;39771;-79
2022/07/26 15:58:01;;;;;;;15.70;11.93;;;;;;;27.29;48.56;99317.41;7632776;32;40646;-79
2022/07/26 16:02:18;;;;;;;16.73;12.50;;;;;;;26.82;48.59;99334.00;7632494;32;37777;-79
2022/07/26 16:06:34;;;;;;;18.05;12.77;;;;;;;27.16;48.83;99319.72;7632243;32;38054;-79
2022/07/26 16:10:50;;;;;;;19.52;13.82;;;;;;;27.21;47.27;99322.13;7619070;32;39494;-79
2022/07/26 16:15:10;;;;;;;19.85;14.50;;;;;;;27.20;47.16;99312.16;7606550;32;39983;-79
2022/07/26 16:19:27;;;;;;;18.42;14.50;;;;;;;27.40;47.00;99314.63;7632265;32;38027;-79
2022/07/26 16:23:43;;;;;;;17.17;13.30;;;;;;;27.10;46.71;99315.72;7631154;32;38171;-78
2022/07/26 16:27:59;;;;;;;17.08;11.88;;;;;;;27.22;45.54;99323.75;7632202;32;39281;-79
2022/07/26 16:32:15;;;;;;;15.02;11.98;;;;;;;27.21;45.20;99326.94;7632021;32;39629;-79
2022/07/26 16:36:31;;;;;;;16.02;11.43;;;;;;;27.21;45.29;99332.53;7632055;32;39224;-78
2022/07/26 16:40:47;;;;;;;16.83;12.65;;;;;;;26.59;45.49;99337.84;7631994;32;37982;-78
2022/07/26 16:45:03;;;;;;;19.87;12.85;;;;;;;26.85;45.42;99333.19;7632074;32;39893;-78
2022/07/26 16:49:20;;;;;;;17.65;12.80;;;;;;;26.81;45.73;99340.78;7632108;32;39836;-79
2022/07/26 16:53:36;;;;;;;18.00;12.70;;;;;;;26.40;46.88;99341.72;7631913;32;38106;-77
2022/07/26 16:57:52;;;;;;;17.15;12.65;;;;;;;26.38;47.43;99346.13;7631875;32;37252;-76
2022/07/26 17:02:08;;;;;;;16.92;14.10;;;;;;;26.38;47.14;99348.91;7631842;32;40127;-77
2022/07/26 17:06:24;;;;;;;19.50;14.55;;;;;;;26.39;47.80;99354.13;7631881;32;40006;-76
2022/07/26 17:10:40;;;;;;;18.77;14.65;;;;;;;26.59;47.46;99360.19;7631815;32;39179;-76
2022/07/26 17:14:56;;;;;;;20.60;14.93;;;;;;;26.27;48.67;99362.81;7631599;32;37198;-77
2022/07/26 17:19:13;;;;;;;19.05;15.25;;;;;;;25.90;50.33;99369.28;7631599;32;39277;-76
2022/07/26 17:23:30;;;;;;;21.77;15.35;;;;;;;25.74;51.20;99374.31;7631295;32;39967;-77
2022/07/26 17:27:46;;;;;;;22.25;15.30;;;;;;;25.69;51.42;99375.47;7631453;32;38663;-76
2022/07/26 17:32:02;;;;;;;20.62;15.60;;;;;;;26.16;50.65;99365.50;7631601;32;37307;-77
2022/07/26 17:36:22;;;;;;;19.08;15.15;;;;;;;26.08;50.78;99352.72;7631156;32;39416;-76
2022/07/26 17:40:38;;;;;;;19.50;15.60;;;;;;;25.94;51.46;99364.56;7631156;32;39999;-76
2022/07/26 17:44:58;;;;;;;21.12;14.98;;;;;;;25.96;51.25;99372.56;7630995;32;36934;-77
2022/07/26 17:49:15;;;;;;;21.10;15.75;;;;;;;25.77;51.80;99367.97;7631010;32;37235;-77
2022/07/26 17:53:32;;;;;;;19.27;14.75;;;;;;;25.63;52.16;99372.25;7630844;32;39304;-76
2022/07/26 17:57:49;;;;;;;20.48;15.95;;;;;;;25.52;52.33;99370.53;7630642;32;39776;-76
2022/07/26 18:02:05;;;;;;;18.48;14.23;;;;;;;25.59;52.49;99374.16;7630621;32;37971;-76
2022/07/26 18:06:21;;;;;;;17.25;13.88;;;;;;;25.63;52.26;99379.78;7623129;32;242295;-76
2022/07/26 18:10:38;;;;;;;18.70;14.15;;;;;;;25.72;52.14;99369.13;7628958;32;40057;-76
2022/07/26 18:14:54;;;;;;;18.33;13.82;;;;;;;25.90;51.53;99385.22;7611048;32;40741;-77
2022/07/26 18:19:10;;;;;;;16.95;13.10;;;;;;;25.64;52.58;99375.81;7604369;32;38032;-76
2022/07/26 18:23:26;;;;;;;16.35;12.65;;;;;;;25.60;52.12;99383.37;7622437;32;35368;-75
2022/07/26 18:27:42;;;;;;;17.85;12.20;;;;;;;25.41;52.40;99376.00;7630087;32;40069;-76
2022/07/26 18:32:00;;;;;;;16.52;11.85;;;;;;;25.33;52.80;99394.62;7622646;32;39986;-73
2022/07/26 18:36:17;;;;;;;18.05;11.95;;;;;;;25.04;53.61;99391.50;7622597;32;37991;-76
2022/07/26 18:40:33;;;;;;;17.70;11.60;;;;;;;25.35;52.57;99389.47;7616192;32;38092;-74
2022/07/26 18:44:49;;;;;;;15.55;11.18;;;;;;;25.44;52.57;99391.94;7620453;32;39859;-74
2022/07/26 18:49:05;;;;;;;14.87;10.43;;;;;;;25.56;51.91;99394.50;7620654;32;40565;-78
2022/07/26 18:53:22;;;;;;;13.45;10.30;;;;;;;25.58;51.82;99399.69;7631617;32;38225;-78
2022/07/26 18:57:40;;;;;;;14.30;10.82;;;;;;;25.44;52.32;99403.94;7632191;32;37166;-78
2022/07/26 19:01:58;;;;;;;13.50;10.10;;;;;;;25.32;52.70;99401.41;7631941;32;39836;-79
2022/07/26 19:06:15;;;;;;;12.27;9.35;;;;;;;25.23;52.67;99415.63;7632640;32;38909;-78
2022/07/26 19:10:31;;;;;;;12.57;9.52;;;;;;;25.24;52.44;99427.56;7631313;32;37987;-78
2022/07/26 19:14:48;;;;;;;13.73;9.27;;;;;;;25.10;52.76;99434.56;7630159;32;37322;-78
2022/07/26 19:19:04;;;;;;;12.73;9.02;;;;;;;24.83;53.51;99441.38;7631280;32;40110;-79
2022/07/26 19:23:20;;;;;;;12.52;8.73;;;;;;;24.77;53.65;99445.66;7616920;32;40841;-79
2022/07/26 19:27:37;;;;;;;12.57;9.27;;;;;;;24.73;53.62;99446.44;7606375;32;37953;-79
2022/07/26 19:31:53;;;;;;;12.98;8.52;;;;;;;24.79;53.24;99448.91;7615045;32;37044;-79
2022/07/26 19:36:09;;;;;;;12.90;8.50;;;;;;;24.64;53.59;99445.88;7632814;32;39333;-78
2022/07/26 19:40:25;;;;;;;12.27;8.18;;;;;;;24.71;53.46;99454.34;7631551;32;40601;-78
2022/07/26 19:44:42;;;;;;;10.50;7.15;;;;;;;24.53;54.05;99447.69;7606482;32;37882;-79
2022/07/26 19:48:58;;;;;;;10.85;7.32;;;;;;;24.47;54.07;99443.59;7605828;32;37873;-79
2022/07/26 19:53:14;;;;;;;10.15;7.03;;;;;;;24.43;54.08;99445.53;7622806;32;39670;-79
2022/07/26 19:57:30;;;;;;;11.25;6.75;;;;;;;24.29;54.17;99444.13;7629347;32;40872;-80
2022/07/26 20:01:48;;;;;;;11.32;7.03;;;;;;;24.11;54.60;99452.19;7626640;32;38791;-79